Time;durP1;ratioP1;P1;durP2;ratioP2;P2;SDS_P1;SDS_P2;PMS_P1;PMS_P2;Temp;Humidity;BMP_temperature;BMP_pressure;BME280_temperature;BME280_humidity;BME280_pressure;Samples;Min_cycle;Max_cycle;Signal;HPM_P1;HPM_P2
2022/05/23 00:01:49;;;;;;;;;7.25;5.00;;;;;20.85;54.04;100103.03;5062552;28;45359;-73
2022/05/23 00:04:15;;;;;;;;;5.00;4.75;;;;;20.87;54.18;100104.59;5066901;27;45678;-73
2022/05/23 00:06:40;;;;;;;;;5.25;4.50;;;;;20.80;54.25;100097.13;5081364;27;45272;-73
2022/05/23 00:09:06;;;;;;;;;4.00;4.00;;;;;20.84;54.59;100096.72;5074449;27;45311;-73
2022/05/23 00:11:32;;;;;;;;;4.00;4.00;;;;;20.87;54.34;100087.47;5081019;27;45315;-73
2022/05/23 00:13:58;;;;;;;;;7.00;6.75;;;;;20.90;54.22;100098.94;5062493;28;45386;-73
2022/05/23 00:16:31;;;;;;;;;6.00;6.00;;;;;20.94;54.19;100098.66;5067842;28;45544;-73
2022/05/23 00:18:57;;;;;;;;;9.00;9.00;;;;;20.97;54.63;100092.97;5072022;28;45552;-73
2022/05/23 00:21:22;;;;;;;;;4.00;4.00;;;;;20.91;54.37;100087.09;5067700;27;45820;-73
2022/05/23 00:23:47;;;;;;;;;5.50;5.00;;;;;20.92;54.52;100086.09;5070535;27;45355;-73
2022/05/23 00:26:17;;;;;;;;;5.00;5.00;;;;;20.91;54.47;100081.66;5063663;28;45311;-73
2022/05/23 00:28:42;;;;;;;;;4.75;4.00;;;;;20.88;54.76;100078.34;5062101;28;45356;-73
2022/05/23 00:31:08;;;;;;;;;4.00;4.00;;;;;20.85;54.55;100073.19;5062282;28;45294;-73
2022/05/23 00:36:18;;;;;;;;;3.75;3.75;;;;;20.78;54.63;100053.00;5059454;27;45596;-73
2022/05/23 00:38:44;;;;;;;;;5.00;4.25;;;;;20.76;54.76;100049.56;5075629;27;45287;-73
2022/05/23 00:44:11;;;;;;;;;4.25;4.25;;;;;20.79;54.90;100038.47;5063613;28;45168;-73
2022/05/23 00:46:50;;;;;;;;;4.75;4.75;;;;;20.84;54.68;100041.63;5071891;28;45424;-73
2022/05/23 00:49:19;;;;;;;;;5.50;3.00;;;;;20.83;54.32;100029.03;5079986;27;45619;-73
2022/05/23 00:51:45;;;;;;;;;3.25;3.25;;;;;20.79;54.38;100030.31;5067687;27;45698;-73
2022/05/23 00:54:11;;;;;;;;;4.50;4.50;;;;;20.83;54.97;100038.06;5074972;27;45318;-73
2022/05/23 00:56:44;;;;;;;;;4.25;4.25;;;;;20.81;54.70;100033.75;5063149;27;45530;-73
2022/05/23 00:59:12;;;;;;;;;3.25;3.25;;;;;20.81;54.31;100025.63;5073626;28;45522;-73
2022/05/23 01:01:40;;;;;;;;;5.25;3.25;;;;;20.79;54.81;100031.16;5061309;28;45504;-73
2022/05/23 01:04:06;;;;;;;;;4.00;4.00;;;;;20.86;54.65;100039.63;5062296;27;45264;-73
2022/05/23 01:06:33;;;;;;;;;4.00;4.00;;;;;20.88;54.16;100037.63;5079255;27;45491;-73
2022/05/23 01:08:59;;;;;;;;;6.00;4.00;;;;;20.89;54.41;100023.94;5067862;27;45415;-73
2022/05/23 01:11:25;;;;;;;;;4.75;3.00;;;;;20.83;54.54;100001.94;5078917;27;45821;-73
2022/05/23 01:13:54;;;;;;;;;3.75;3.75;;;;;20.88;54.63;100005.09;5071021;28;46816;-73
2022/05/23 01:16:24;;;;;;;;;4.75;3.00;;;;;20.80;54.79;99980.50;5071259;28;45632;-73
2022/05/23 01:18:49;;;;;;;;;3.75;3.00;;;;;20.85;54.31;99976.41;5070708;28;45453;-73
2022/05/23 01:21:28;;;;;;;;;4.00;4.00;;;;;20.79;54.67;99967.94;5073110;27;45377;-73
2022/05/23 01:24:08;;;;;;;;;5.00;4.00;;;;;20.70;54.59;99967.75;5072928;28;45244;-73
2022/05/23 01:26:33;;;;;;;;;3.75;3.75;;;;;20.67;54.44;99945.47;5068446;28;45554;-73
2022/05/23 01:28:59;;;;;;;;;3.50;3.50;;;;;20.64;54.64;99929.47;5067998;27;45311;-73
2022/05/23 01:31:24;;;;;;;;;2.50;2.50;;;;;20.64;54.67;99932.19;5061077;28;45312;-73
2022/05/23 01:33:50;;;;;;;;;4.00;4.00;;;;;20.64;54.83;99932.19;5064493;27;45736;-73
2022/05/23 01:36:16;;;;;;;;;5.25;4.25;;;;;20.66;54.94;99950.00;5065478;27;45355;-73
2022/05/23 01:38:42;;;;;;;;;2.25;2.25;;;;;20.69;54.44;99944.31;5071000;27;45272;-73
2022/05/23 01:41:07;;;;;;;;;5.00;5.00;;;;;20.72;54.76;99935.94;5074862;27;45262;-73
2022/05/23 01:43:33;;;;;;;;;4.00;3.00;;;;;20.70;54.45;99921.66;5073010;28;46208;-73
2022/05/23 01:45:59;;;;;;;;;4.00;3.00;;;;;20.66;54.61;99909.34;5061882;28;45668;-73
2022/05/23 01:48:25;;;;;;;;;5.00;4.00;;;;;20.67;54.42;99896.66;5060883;28;46328;-73
2022/05/23 01:50:51;;;;;;;;;3.00;3.00;;;;;20.69;54.75;99891.94;5074030;27;45532;-73
2022/05/23 01:53:16;;;;;;;;;3.00;3.00;;;;;20.68;54.79;99893.81;5060703;28;45389;-73
2022/05/23 01:55:42;;;;;;;;;3.25;3.00;;;;;20.71;54.89;99896.25;5064955;27;45389;-73
2022/05/23 01:58:08;;;;;;;;;5.50;4.25;;;;;20.76;54.87;99897.69;5071801;28;45378;-73
2022/05/23 02:03:18;;;;;;;;;5.00;3.00;;;;;20.70;54.82;99880.97;5067044;28;45377;-73
2022/05/23 02:05:43;;;;;;;;;5.00;4.00;;;;;20.68;54.55;99876.66;5067370;27;45475;-73
2022/05/23 02:08:09;;;;;;;;;6.00;4.00;;;;;20.67;54.86;99885.81;5060518;28;46120;-73
2022/05/23 02:10:34;;;;;;;;;3.00;3.00;;;;;20.63;54.55;99863.53;5072943;27;45488;-73
2022/05/23 02:13:02;;;;;;;;;3.25;3.25;;;;;20.68;54.78;99879.38;5075528;27;45232;-73
2022/05/23 02:15:31;;;;;;;;;2.50;2.50;;;;;20.69;54.93;99878.41;5072303;28;45286;-73
2022/05/23 02:18:01;;;;;;;;;2.75;2.50;;;;;20.68;54.28;99882.97;5069239;27;45484;-73
2022/05/23 02:20:26;;;;;;;;;3.00;3.00;;;;;20.72;54.15;99886.25;5059769;28;45303;-73
2022/05/23 02:22:52;;;;;;;;;4.00;4.00;;;;;20.73;54.43;99893.38;5062927;28;45582;-73
2022/05/23 02:25:18;;;;;;;;;4.50;4.00;;;;;20.79;54.91;99900.13;5070552;27;45409;-73
2022/05/23 02:27:43;;;;;;;;;3.00;3.00;;;;;20.78;54.34;99898.41;5060047;28;46299;-73
2022/05/23 02:30:09;;;;;;;;;4.00;4.00;;;;;20.83;54.57;99907.88;5060462;28;45240;-73
2022/05/23 02:32:34;;;;;;;;;3.00;3.00;;;;;20.83;54.16;99904.28;5061882;28;45478;-73
2022/05/23 02:35:00;;;;;;;;;1.50;1.50;;;;;20.75;54.38;99891.41;5077769;27;45233;-73
2022/05/23 02:37:25;;;;;;;;;5.25;4.00;;;;;20.83;54.71;99909.72;5064076;27;45956;-73
2022/05/23 02:39:51;;;;;;;;;3.50;3.50;;;;;20.83;54.56;99913.31;5079859;27;45369;-73
2022/05/23 02:42:16;;;;;;;;;6.50;4.00;;;;;20.80;54.72;99913.56;5068360;28;45377;-73
2022/05/23 02:44:42;;;;;;;;;4.25;4.25;;;;;20.85;54.85;99915.88;5063740;28;45386;-73
2022/05/23 02:47:07;;;;;;;;;5.75;5.25;;;;;20.87;54.56;99905.75;5063769;27;45502;-73
2022/05/23 02:49:33;;;;;;;;;4.75;4.00;;;;;20.84;54.56;99906.00;5068727;28;45566;-73
2022/05/23 02:51:58;;;;;;;;;4.25;2.75;;;;;20.85;54.61;99905.88;5063825;27;45381;-73
2022/05/23 02:54:24;;;;;;;;;6.00;6.00;;;;;20.88;54.51;99902.00;5060743;28;45350;-73
2022/05/23 02:56:49;;;;;;;;;4.00;4.00;;;;;20.89;54.72;99899.16;5067577;27;45362;-73
2022/05/23 02:59:14;;;;;;;;;3.00;3.00;;;;;20.88;55.18;99885.75;5078575;27;45412;-73
2022/05/23 03:04:24;;;;;;;;;5.75;4.00;;;;;20.86;54.82;99902.16;5063823;27;45307;-73
2022/05/23 03:06:50;;;;;;;;;3.00;3.00;;;;;20.85;54.64;99903.16;5062153;27;46681;-73
2022/05/23 03:09:15;;;;;;;;;2.25;2.00;;;;;20.86;54.52;99907.56;5060054;28;45365;-73
2022/05/23 03:11:41;;;;;;;;;3.00;3.00;;;;;20.83;54.86;99917.84;5078760;27;45531;-73
2022/05/23 03:14:06;;;;;;;;;3.00;3.00;;;;;20.90;54.95;99933.44;5067174;27;45450;-73
2022/05/23 03:16:31;;;;;;;;;3.25;3.25;;;;;20.92;54.67;99936.88;5073271;28;45200;-73
2022/05/23 03:18:57;;;;;;;;;8.50;5.00;;;;;20.92;54.63;99930.59;5060938;28;45337;-73
2022/05/23 03:27:01;;;;;;;;;4.00;4.00;;;;;20.95;54.83;99905.91;5061785;28;45767;-73
2022/05/23 03:29:28;;;;;;;;;4.75;4.75;;;;;20.90;54.64;99889.19;5059499;28;45504;-73
2022/05/23 03:31:54;;;;;;;;;5.00;5.00;;;;;20.92;55.24;99888.06;5060266;28;45312;-73
2022/05/23 03:34:19;;;;;;;;;3.00;3.00;;;;;20.89;54.73;99882.91;5065767;27;45441;-73
2022/05/23 03:36:44;;;;;;;;;2.75;2.75;;;;;20.91;54.88;99878.22;5081742;27;46090;-73
2022/05/23 03:39:10;;;;;;;;;4.75;4.75;;;;;20.91;54.95;99875.50;5079585;27;45340;-73
2022/05/23 03:41:35;;;;;;;;;6.00;4.75;;;;;20.86;54.45;99844.34;5072325;27;45717;-73
2022/05/23 03:44:01;;;;;;;;;3.00;3.00;;;;;20.79;54.65;99854.03;5076114;28;45343;-73
2022/05/23 03:46:28;;;;;;;;;4.50;4.50;;;;;20.78;55.36;99863.16;5068617;28;45399;-73
2022/05/23 03:48:54;;;;;;;;;4.25;4.00;;;;;20.75;55.86;99858.88;5069901;28;45701;-73
2022/05/23 03:51:19;;;;;;;;;2.25;2.00;;;;;20.78;56.20;99858.59;5070238;27;45374;-73
2022/05/23 03:53:44;;;;;;;;;4.75;3.75;;;;;20.80;56.15;99856.63;5064699;28;45373;-73
2022/05/23 03:56:10;;;;;;;;;7.50;6.00;;;;;20.77;56.00;99845.19;5071144;27;46180;-73
2022/05/23 03:58:36;;;;;;;;;4.50;3.50;;;;;20.78;56.19;99847.75;5074700;28;45343;-73
2022/05/23 04:01:06;;;;;;;;;4.00;4.00;;;;;20.82;55.80;99865.47;5061601;28;45414;-73
2022/05/23 04:03:31;;;;;;;;;4.00;4.00;;;;;20.81;56.34;99863.72;5062388;28;45292;-73
2022/05/23 04:05:59;;;;;;;;;6.00;4.00;;;;;20.82;56.22;99851.06;5070067;27;45445;-73
2022/05/23 04:08:25;;;;;;;;;4.00;4.00;;;;;20.81;56.15;99847.47;5062461;28;45596;-73
2022/05/23 04:10:50;;;;;;;;;8.00;5.25;;;;;20.80;56.53;99831.31;5075327;27;45318;-73
2022/05/23 04:13:15;;;;;;;;;3.50;3.50;;;;;20.75;56.80;99811.91;5066200;27;46668;-73
2022/05/23 04:15:41;;;;;;;;;8.25;5.00;;;;;20.79;56.66;99810.63;5061394;28;46008;-73
2022/05/23 04:18:07;;;;;;;;;6.00;5.00;;;;;20.75;56.30;99817.31;5065094;28;45150;-73
2022/05/23 04:20:32;;;;;;;;;5.00;5.00;;;;;20.74;56.65;99800.19;5073229;27;45210;-73
2022/05/23 04:22:58;;;;;;;;;6.00;4.75;;;;;20.77;56.50;99804.50;5063673;28;45239;-73
2022/05/23 04:25:23;;;;;;;;;3.75;3.75;;;;;20.76;56.20;99809.06;5068906;27;45354;-73
2022/05/23 04:27:48;;;;;;;;;5.00;5.00;;;;;20.68;56.07;99781.75;5067733;27;45322;-73
2022/05/23 04:30:14;;;;;;;;;5.25;5.25;;;;;20.59;57.26;99791.56;5073374;27;45228;-73
2022/05/23 04:35:24;;;;;;;;;5.75;5.00;;;;;20.47;56.87;99768.25;5074964;27;45237;-73
2022/05/23 04:37:52;;;;;;;;;4.00;4.00;;;;;20.39;57.73;99762.66;5065705;27;45332;-73
2022/05/23 04:40:22;;;;;;;;;6.25;5.75;;;;;20.26;57.71;99725.81;5082876;27;45321;-73
2022/05/23 04:42:47;;;;;;;;;5.25;5.25;;;;;20.29;57.86;99719.28;5072820;27;45435;-73
2022/05/23 04:45:14;;;;;;;;;5.75;5.75;;;;;20.28;57.83;99742.81;5071540;27;47956;-73
2022/05/23 04:50:24;;;;;;;;;7.00;6.00;;;;;20.30;59.04;99781.47;5066397;28;45456;-73
2022/05/23 04:52:50;;;;;;;;;5.00;5.00;;;;;20.32;58.67;99768.63;5061922;28;45215;-73
2022/05/23 04:55:17;;;;;;;;;6.00;5.00;;;;;20.36;59.03;99775.50;5076688;27;46165;-73
2022/05/23 04:57:42;;;;;;;;;6.75;6.00;;;;;20.35;59.14;99767.50;5068104;28;45688;-73
2022/05/23 05:00:10;;;;;;;;;5.75;5.75;;;;;20.42;58.70;99768.66;5067522;27;45457;-73
2022/05/23 05:02:37;;;;;;;;;5.00;5.00;;;;;20.36;58.66;99764.66;5066616;28;45418;-73
2022/05/23 05:05:03;;;;;;;;;8.50;5.00;;;;;20.28;58.70;99742.81;5067012;27;47187;-73
2022/05/23 05:07:29;;;;;;;;;4.50;4.50;;;;;20.27;59.08;99741.09;5073752;28;45298;-73
2022/05/23 05:09:54;;;;;;;;;7.00;5.00;;;;;20.28;58.82;99729.25;5068031;27;45283;-73
2022/05/23 05:12:20;;;;;;;;;6.25;6.25;;;;;20.14;58.84;99719.63;5073349;27;45183;-73
2022/05/23 05:14:46;;;;;;;;;6.50;6.00;;;;;20.18;58.96;99721.09;5077610;28;46643;-73
2022/05/23 05:17:11;;;;;;;;;7.00;7.00;;;;;20.16;59.00;99736.63;5063843;28;45303;-73
2022/05/23 05:19:36;;;;;;;;;4.25;4.25;;;;;20.13;59.19;99745.03;5074893;28;45244;-73
2022/05/23 05:22:03;;;;;;;;;7.00;7.00;;;;;20.06;59.21;99738.41;5061698;28;45308;-73
2022/05/23 05:24:32;;;;;;;;;5.25;5.00;;;;;20.03;59.51;99740.53;5068322;28;45475;-73
2022/05/23 05:26:58;;;;;;;;;6.50;6.25;;;;;19.90;59.59;99719.97;5061445;28;45246;-73
2022/05/23 05:29:23;;;;;;;;;6.50;6.50;;;;;19.90;59.81;99725.38;5061261;28;45235;-73
2022/05/23 05:32:06;;;;;;;;;5.00;5.00;;;;;19.77;60.10;99708.47;5070341;28;45441;-73
2022/05/23 05:34:41;;;;;;;;;8.00;7.00;;;;;19.89;59.79;99733.63;5070761;27;46278;-73
2022/05/23 05:37:17;;;;;;;;;7.00;6.00;;;;;19.83;60.38;99743.16;5076690;28;45419;-73
2022/05/23 05:39:45;;;;;;;;;7.00;7.00;;;;;19.85;60.48;99741.16;5081186;27;45274;-73
2022/05/23 05:42:18;;;;;;;;;6.00;6.00;;;;;19.96;60.53;99772.72;5080414;27;45510;-74
2022/05/23 05:44:49;;;;;;;;;6.75;6.75;;;;;19.99;61.19;99776.00;5073626;27;46250;-74
2022/05/23 05:47:17;;;;;;;;;6.25;6.25;;;;;20.01;60.69;99764.19;5074782;27;45564;-74
2022/05/23 05:49:45;;;;;;;;;11.00;9.00;;;;;20.06;60.71;99751.94;5068529;28;45236;-75
2022/05/23 05:52:13;;;;;;;;;7.00;5.75;;;;;20.10;60.45;99750.72;5069822;28;45679;-74
2022/05/23 05:54:40;;;;;;;;;8.25;6.50;;;;;20.14;61.05;99744.00;5063402;27;45441;-74
2022/05/23 05:57:07;;;;;;;;;7.00;7.00;;;;;20.18;60.76;99725.66;5072825;27;45272;-74
2022/05/23 05:59:34;;;;;;;;;6.00;6.00;;;;;20.21;60.50;99729.94;5068097;28;45418;-75
2022/05/23 06:01:59;;;;;;;;;8.75;7.75;;;;;20.20;60.69;99741.75;5073839;27;45430;-74
2022/05/23 06:04:24;;;;;;;;;7.00;6.00;;;;;20.25;60.97;99736.81;5064281;27;46306;-73
2022/05/23 06:12:34;;;;;;;;;7.00;6.00;;;;;20.30;60.47;99743.53;5091291;27;45362;-75
2022/05/23 06:15:00;;;;;;;;;6.25;6.25;;;;;20.37;60.39;99751.97;5087698;27;46607;-75
2022/05/23 06:17:25;;;;;;;;;4.75;4.75;;;;;20.35;60.41;99754.81;5071207;27;45380;-75
2022/05/23 06:19:51;;;;;;;;;6.75;6.75;;;;;20.38;60.74;99763.66;5059548;28;45343;-75
2022/05/23 06:22:17;;;;;;;;;7.00;7.00;;;;;20.42;60.73;99757.81;5062937;28;45299;-75
2022/05/23 06:24:44;;;;;;;;;7.75;6.25;;;;;20.44;60.69;99752.28;5071268;27;46574;-75
2022/05/23 06:27:10;;;;;;;;;9.00;7.25;;;;;20.42;60.71;99744.28;5071871;27;45379;-74
2022/05/23 06:29:38;;;;;;;;;7.00;7.00;;;;;20.45;60.70;99732.31;5065578;27;45537;-75
2022/05/23 06:32:04;;;;;;;;;6.50;6.50;;;;;20.47;60.43;99711.34;5072138;28;45335;-75
2022/05/23 06:34:30;;;;;;;;;5.25;5.00;;;;;20.52;61.00;99717.22;5067999;28;46374;-75
2022/05/23 06:36:56;;;;;;;;;5.50;5.50;;;;;20.49;60.96;99693.09;5073219;27;45416;-76
2022/05/23 06:39:22;;;;;;;;;7.50;6.25;;;;;20.55;60.41;99689.81;5068311;27;45338;-74
2022/05/23 06:41:48;;;;;;;;;5.50;5.50;;;;;20.51;60.91;99693.78;5074012;28;45454;-75
2022/05/23 06:44:17;;;;;;;;;5.75;5.75;;;;;20.52;60.80;99680.09;5077129;27;46360;-73
2022/05/23 06:46:43;;;;;;;;;6.50;6.50;;;;;20.49;61.06;99688.50;5062017;28;45830;-72
2022/05/23 06:49:09;;;;;;;;;9.00;7.50;;;;;20.54;60.97;99698.94;5070727;28;45417;-77
2022/05/23 06:51:35;;;;;;;;;8.00;6.50;;;;;20.52;61.03;99695.53;5060761;27;45369;-77
2022/05/23 06:54:00;;;;;;;;;6.00;5.00;;;;;20.52;60.99;99696.38;5061737;28;45345;-76
2022/05/23 06:56:28;;;;;;;;;5.50;5.00;;;;;20.51;61.29;99696.50;5068829;27;45571;-79
2022/05/23 06:58:53;;;;;;;;;5.50;5.50;;;;;20.48;61.17;99680.50;5064786;27;45548;-76
2022/05/23 07:01:19;;;;;;;;;5.50;5.00;;;;;20.50;61.22;99682.09;5067900;28;45481;-81
2022/05/23 07:03:44;;;;;;;;;5.50;5.50;;;;;20.50;61.81;99683.97;5072594;28;46838;-77
2022/05/23 07:14:34;;;;;;;;;6.75;6.75;;;;;20.55;61.94;99692.53;5062752;28;45767;-77
2022/05/23 07:17:00;;;;;;;;;8.00;8.00;;;;;20.57;61.85;99689.69;5072057;28;45314;-77
2022/05/23 07:19:26;;;;;;;;;7.75;7.75;;;;;20.57;61.93;99701.38;5082959;27;45418;-78
2022/05/23 07:21:59;;;;;;;;;7.00;6.00;;;;;20.57;62.42;99695.97;5066862;28;45494;-75
2022/05/23 07:24:29;;;;;;;;;6.00;6.00;;;;;20.54;61.91;99678.09;5079607;27;47028;-73
2022/05/23 07:26:55;;;;;;;;;6.00;5.50;;;;;20.53;62.02;99683.66;5083113;27;45749;-76
2022/05/23 07:29:25;;;;;;;;;8.50;8.50;;;;;20.63;62.13;99721.66;5088465;27;45884;-76
2022/05/23 07:31:51;;;;;;;;;7.25;6.25;;;;;20.63;62.16;99717.13;5086395;27;45515;-68
2022/05/23 07:34:18;;;;;;;;;10.00;9.00;;;;;20.64;62.16;99705.28;5061885;27;46999;-68
2022/05/23 07:36:44;;;;;;;;;9.75;8.75;;;;;20.62;62.31;99706.38;5062760;28;45378;-68
2022/05/23 07:39:11;;;;;;;;;6.00;6.00;;;;;20.63;61.99;99714.41;5085651;27;45797;-68
2022/05/23 07:41:42;;;;;;;;;10.00;8.50;;;;;20.66;62.13;99716.81;5083515;27;45557;-69
2022/05/23 07:44:10;;;;;;;;;11.00;9.75;;;;;20.68;62.21;99698.59;5078804;28;49138;-66
2022/05/23 07:46:37;;;;;;;;;11.00;8.75;;;;;20.71;62.70;99659.47;5074911;27;45671;-65
2022/05/23 07:49:04;;;;;;;;;10.50;10.50;;;;;20.76;62.89;99645.50;5066163;27;45524;-66
2022/05/23 07:51:30;;;;;;;;;8.25;8.25;;;;;20.78;62.96;99641.66;5067082;28;45916;-66
2022/05/23 08:02:10;;;;;;;;;12.75;11.25;;;;;20.79;63.70;99648.78;5067637;27;45385;-66
2022/05/23 08:04:36;;;;;;;;;13.00;11.00;;;;;20.77;64.15;99647.22;5073236;27;47313;-65
2022/05/23 08:07:02;;;;;;;;;10.25;8.75;;;;;20.79;63.98;99637.06;5064307;28;45915;-65
2022/05/23 08:09:27;;;;;;;;;12.25;12.25;;;;;20.81;64.06;99645.91;5065861;27;45448;-64
2022/05/23 08:11:53;;;;;;;;;14.50;12.25;;;;;20.81;64.22;99640.50;5078152;27;45665;-71
2022/05/23 08:14:19;;;;;;;;;11.25;10.00;;;;;20.78;64.39;99644.38;5060207;27;45684;-72
2022/05/23 08:16:45;;;;;;;;;9.75;9.00;;;;;20.80;64.51;99636.06;5068512;27;45502;-70
2022/05/23 08:19:10;;;;;;;;;15.00;10.75;;;;;20.83;65.49;99635.78;5073367;27;45483;-70
2022/05/23 08:21:42;;;;;;;;;12.75;11.75;;;;;20.86;66.13;99652.63;5072674;27;45555;-71
2022/05/23 08:24:07;;;;;;;;;12.00;10.75;;;;;20.84;65.31;99657.34;5075164;27;45387;-71
2022/05/23 08:26:32;;;;;;;;;13.50;13.50;;;;;20.89;65.03;99670.47;5077209;27;45418;-80
2022/05/23 08:28:58;;;;;;;;;12.00;9.00;;;;;20.91;65.31;99680.19;5079059;27;45401;-74
2022/05/23 08:31:23;;;;;;;;;13.75;12.50;;;;;20.93;65.88;99674.59;5080252;27;45885;-77
2022/05/23 08:33:49;;;;;;;;;15.00;11.00;;;;;20.95;66.20;99678.06;5067516;27;46931;-74
2022/05/23 08:36:14;;;;;;;;;11.50;11.00;;;;;20.92;66.19;99662.06;5061613;28;45536;-75
2022/05/23 08:38:39;;;;;;;;;13.50;10.50;;;;;20.93;65.89;99661.03;5067765;27;45433;-74
2022/05/23 08:41:10;;;;;;;;;15.25;14.50;;;;;20.92;66.22;99659.34;5071069;27;45373;-76
2022/05/23 08:44:08;;;;;;;;;11.75;11.75;;;;;20.87;66.01;99658.91;5080026;27;47338;-77
2022/05/23 08:46:45;;;;;;;;;11.25;9.75;;;;;20.93;66.89;99647.47;5077064;28;45600;-85
2022/05/23 08:49:35;;;;;;;;;12.50;12.00;;;;;20.95;66.29;99653.63;5063936;28;45475;-76
2022/05/23 08:52:10;;;;;;;;;9.50;8.25;;;;;20.98;65.66;99663.34;5063198;27;45385;-76
2022/05/23 08:55:02;;;;;;;;;11.00;10.00;;;;;20.96;65.49;99666.19;5066321;27;45517;-76
2022/05/23 08:57:55;;;;;;;;;9.25;9.25;;;;;20.97;65.37;99672.50;5068899;28;45913;-77
2022/05/23 09:00:29;;;;;;;;;11.75;9.50;;;;;20.95;65.76;99664.50;5071816;27;45381;-75
2022/05/23 09:03:05;;;;;;;;;10.00;9.00;;;;;20.88;65.22;99656.06;5068988;27;45536;-76
2022/05/23 09:05:34;;;;;;;;;8.00;8.00;;;;;20.87;65.39;99669.78;5073334;27;45784;-76
2022/05/23 09:08:04;;;;;;;;;7.25;7.25;;;;;20.84;65.42;99665.47;5078072;27;45729;-76
2022/05/23 09:10:39;;;;;;;;;10.50;10.50;;;;;20.88;65.25;99674.16;5084110;27;45543;-76
2022/05/23 09:13:09;;;;;;;;;10.50;10.00;;;;;20.92;65.04;99675.63;5072495;27;45772;-76
2022/05/23 09:15:35;;;;;;;;;4.75;4.75;;;;;20.92;65.58;99681.91;5064604;28;47625;-76
2022/05/23 09:18:10;;;;;;;;;13.25;12.00;;;;;20.95;65.41;99671.75;5061172;28;45421;-76
2022/05/23 09:20:44;;;;;;;;;9.00;8.50;;;;;20.95;64.91;99677.19;5074280;28;45557;-76
2022/05/23 09:23:24;;;;;;;;;12.25;10.50;;;;;20.93;65.08;99671.88;5071347;27;45646;-77
2022/05/23 09:25:51;;;;;;;;;11.25;10.25;;;;;20.92;64.49;99665.63;5076729;27;45489;-77
2022/05/23 09:28:30;;;;;;;;;14.00;11.50;;;;;20.92;64.28;99662.91;5084856;27;45462;-76
2022/05/23 09:31:33;;;;;;;;;10.00;9.75;;;;;20.94;64.67;99670.91;5079440;27;46178;-77
2022/05/23 09:33:59;;;;;;;;;13.25;13.25;;;;;20.92;64.39;99665.63;5073631;27;45414;-76
2022/05/23 09:36:29;;;;;;;;;12.25;10.50;;;;;20.93;64.16;99661.03;5066447;28;45870;-75
2022/05/23 09:38:55;;;;;;;;;12.25;11.75;;;;;20.94;64.17;99665.47;5080238;27;45401;-76
2022/05/23 09:49:53;;;;;;;;;12.25;12.25;;;;;21.06;63.65;99653.47;5080058;28;45596;-76
2022/05/23 09:52:31;;;;;;;;;12.75;12.75;;;;;21.08;63.87;99654.19;5076199;27;45548;-76
2022/05/23 09:55:04;;;;;;;;;14.25;11.75;;;;;21.07;63.58;99657.91;5077487;27;46106;-77
2022/05/23 09:57:35;;;;;;;;;11.00;11.00;;;;;21.09;63.64;99657.75;5077521;28;45501;-78
2022/05/23 10:00:00;;;;;;;;;10.50;10.50;;;;;21.10;63.19;99662.19;5079244;27;45571;-77
2022/05/23 10:02:31;;;;;;;;;11.50;11.00;;;;;21.12;62.84;99662.03;5075414;27;45422;-76
2022/05/23 10:04:57;;;;;;;;;12.75;11.75;;;;;21.14;62.67;99651.91;5075262;27;45524;-76
2022/05/23 10:07:32;;;;;;;;;13.50;12.00;;;;;21.16;62.98;99656.19;5062265;28;45362;-77
2022/05/23 10:10:23;;;;;;;;;11.25;9.75;;;;;21.18;62.73;99650.59;5081016;27;45627;-76
2022/05/23 10:12:50;;;;;;;;;10.25;10.25;;;;;21.18;62.34;99653.31;5080458;27;45422;-76
2022/05/23 10:15:28;;;;;;;;;13.50;13.00;;;;;21.19;62.66;99647.75;5079057;27;45554;-76
2022/05/23 10:18:07;;;;;;;;;13.75;13.50;;;;;21.14;62.71;99641.91;5072708;27;45388;-76
2022/05/23 10:20:43;;;;;;;;;14.50;14.50;;;;;21.18;62.74;99653.31;5073077;28;45830;-76
2022/05/23 10:23:20;;;;;;;;;14.50;13.50;;;;;21.15;62.14;99649.06;5065754;27;45631;-76
2022/05/23 10:26:04;;;;;;;;;12.50;12.00;;;;;21.19;62.48;99655.03;5062388;27;45839;-77
2022/05/23 10:28:37;;;;;;;;;15.25;15.00;;;;;21.17;62.05;99659.78;5058925;28;46024;-76
2022/05/23 10:31:13;;;;;;;;;15.00;13.50;;;;;21.17;61.30;99657.91;5065565;28;45845;-76
2022/05/23 10:33:41;;;;;;;;;16.00;15.25;;;;;21.17;61.17;99655.19;5068761;28;45601;-70
2022/05/23 10:36:14;;;;;;;;;16.75;14.00;;;;;21.18;61.05;99664.19;5065940;28;45886;-70
2022/05/23 10:44:38;;;;;;;;;16.25;15.25;;;;;21.10;62.08;99654.06;5057959;28;45484;-70
2022/05/23 10:47:20;;;;;;;;;15.75;15.75;;;;;21.08;61.96;99654.19;5072307;28;45448;-71
2022/05/23 10:50:14;;;;;;;;;15.75;15.75;;;;;21.07;61.97;99648.91;5058990;28;46218;-70
2022/05/23 10:53:01;;;;;;;;;20.00;20.00;;;;;21.00;63.08;99637.78;5055527;27;45695;-71
2022/05/23 10:55:49;;;;;;;;;18.25;17.50;;;;;20.98;62.43;99642.50;5062488;27;45519;-70
2022/05/23 10:58:31;;;;;;;;;19.25;18.25;;;;;20.92;62.56;99632.22;5070539;28;45863;-70
2022/05/23 11:01:34;;;;;;;;;14.75;13.50;;;;;20.97;62.52;99648.91;5067147;28;45980;-70
2022/05/23 11:04:18;;;;;;;;;19.00;18.50;;;;;20.96;62.63;99666.19;5071949;27;45349;-70
2022/05/23 11:07:08;;;;;;;;;20.50;18.75;;;;;20.94;62.68;99687.19;5073281;28;45538;-71
2022/05/23 11:09:58;;;;;;;;;17.50;16.25;;;;;20.90;62.89;99666.78;5061153;27;45519;-70
2022/05/23 11:12:42;;;;;;;;;18.50;17.50;;;;;20.89;63.23;99643.34;5059579;27;46355;-70
2022/05/23 11:15:29;;;;;;;;;18.50;16.75;;;;;20.87;63.97;99640.78;5064042;28;45415;-71
2022/05/23 11:18:08;;;;;;;;;20.00;17.75;;;;;20.78;63.77;99640.78;5066025;28;45410;-71
2022/05/23 11:20:36;;;;;;;;;18.50;17.00;;;;;20.81;63.96;99656.75;5069777;28;45315;-72
2022/05/23 11:23:04;;;;;;;;;21.25;20.75;;;;;20.81;63.68;99651.34;5072788;27;47117;-70
2022/05/23 11:25:35;;;;;;;;;19.25;19.25;;;;;20.79;64.43;99659.63;5065474;28;45161;-70
2022/05/23 11:38:38;;;;;;;;;;;;;;;;;;;;;
2022/05/23 11:44:14;;;;;;;;;22.75;22.00;;;;;20.41;64.74;99625.16;5072341;28;45546;-70
2022/05/23 11:50:39;;;;;;;;;;;;;;;;;;;;;
2022/05/23 11:53:40;;;;;;;;;;;;;;;;;;;;;
2022/05/23 11:59:48;;;;;;;;;20.00;20.00;;;;;20.65;65.05;99669.03;5054364;28;46515;-70
2022/05/23 12:13:15;;;;;;;;;20.25;19.25;;;;;20.58;64.97;99673.28;5031988;28;45586;-71
2022/05/23 12:15:59;;;;;;;;;;;;;;;;;;;;;
2022/05/23 12:54:47;;;;;;;;;;;;;;;;;;;;;
2022/05/23 12:58:13;;;;;;;;;;;;;;;;;;;;;
2022/05/23 13:01:39;;;;;;;;;;;;;;;;;;;;;
2022/05/23 13:08:15;;;;;;;;;;;;;;;;;;;;;
2022/05/23 13:15:12;;;;;;;;;;;;;;;;;;;;;
2022/05/23 13:32:20;;;;;;;;;;;;;;;;;;;;;
2022/05/23 13:38:45;;;;;;;;;15.00;13.50;;;;;19.67;64.34;99715.66;5003242;28;45664;-74
2022/05/23 13:53:07;;;;;;;;;;;;;;;;;;;;;
2022/05/23 14:44:07;;;;;;;;;4.75;4.75;;;;;19.66;61.90;99784.31;1367293;26;45982;-68
2022/05/23 14:47:35;;;;;;;;;6.25;5.25;;;;;19.93;61.41;99836.16;5053963;28;45691;-69
2022/05/23 15:04:45;;;;;;;;;;;;;;;;;;;;;
2022/05/23 15:11:28;;;;;;;;;;;;;;;;;;;;;
2022/05/23 15:31:51;;;;;;;;;;;;;;;;;;;;;
2022/05/23 15:52:29;;;;;;;;;;;;;;;;;;;;;
2022/05/23 16:41:27;;;;;;;;;;;;;;;;;;;;;
2022/05/23 17:45:02;;;;;;;;;;;;;;;;;;;;;
2022/05/23 18:09:34;;;;;;;;;3.25;3.25;;;;;19.27;61.64;99941.81;4954482;28;45897;-70
2022/05/23 18:11:36;;;;;;;;;2.75;2.75;;;;;19.35;61.21;99965.53;4949798;28;45641;-89
2022/05/23 18:19:31;;;;;;;;;3.75;3.00;;;;;19.18;60.79;99958.78;4975082;28;45505;-77
2022/05/23 19:17:59;;;;;;;;;1.75;0.75;;;;;19.37;58.31;100012.28;4931687;28;45575;-70
2022/05/23 19:20:25;;;;;;;;;1.00;1.00;;;;;19.08;58.61;99972.19;5001792;28;47115;-74
2022/05/23 19:22:54;;;;;;;;;1.00;1.00;;;;;19.08;59.10;99969.50;4978414;28;45411;-73
2022/05/23 19:25:21;;;;;;;;;1.00;1.00;;;;;18.98;58.57;99955.84;4994439;28;45948;-74
2022/05/23 19:27:46;;;;;;;;;1.00;1.00;;;;;18.91;58.87;99960.03;4973982;28;45777;-74
2022/05/23 19:30:13;;;;;;;;;1.00;1.00;;;;;19.19;59.03;100003.78;4978461;28;46909;-74
2022/05/23 19:32:38;;;;;;;;;1.75;1.75;;;;;19.19;58.68;100003.78;4976457;28;45669;-74
2022/05/23 19:35:14;;;;;;;;;1.00;1.00;;;;;19.10;58.63;99985.59;4976326;28;45450;-74
2022/05/23 19:37:40;;;;;;;;;5.75;2.75;;;;;19.26;58.66;100021.22;4975269;28;45437;-75
2022/05/23 19:40:07;;;;;;;;;2.00;1.75;;;;;18.94;58.97;99975.97;4972052;28;47657;-75
2022/05/23 19:42:32;;;;;;;;;2.00;2.00;;;;;19.05;59.52;99997.63;4984532;28;45749;-73